sensor_id;sensor_type;location;lat;lon;timestamp;pressure;altitude;pressure_sealevel;temperature;humidity
78117;BME280;69042;59.120;37.904;2024-02-21T00:01:57;100775.19;;;-5.74;64.95
78117;BME280;69042;59.120;37.904;2024-02-21T00:04:24;100771.69;;;-5.78;65.22
78117;BME280;69042;59.120;37.904;2024-02-21T00:06:50;100761.28;;;-5.84;65.48
78117;BME280;69042;59.120;37.904;2024-02-21T00:09:17;100769.75;;;-5.85;65.28
78117;BME280;69042;59.120;37.904;2024-02-21T00:11:45;100768.84;;;-5.86;65.35
78117;BME280;69042;59.120;37.904;2024-02-21T00:14:12;100766.31;;;-5.86;64.96
78117;BME280;69042;59.120;37.904;2024-02-21T00:16:38;100770.66;;;-5.83;65.54
78117;BME280;69042;59.120;37.904;2024-02-21T00:19:05;100765.41;;;-5.88;64.93
78117;BME280;69042;59.120;37.904;2024-02-21T00:21:31;100766.38;;;-5.84;64.69
78117;BME280;69042;59.120;37.904;2024-02-21T00:23:57;100766.38;;;-5.84;65.31
78117;BME280;69042;59.120;37.904;2024-02-21T00:26:24;100768.16;;;-5.81;64.74
78117;BME280;69042;59.120;37.904;2024-02-21T00:28:51;100771.69;;;-5.78;65.14
78117;BME280;69042;59.120;37.904;2024-02-21T00:31:18;100770.81;;;-5.78;65.29
78117;BME280;69042;59.120;37.904;2024-02-21T00:33:44;100771.69;;;-5.78;65.40
78117;BME280;69042;59.120;37.904;2024-02-21T00:36:11;100772.63;;;-5.74;65.49
78117;BME280;69042;59.120;37.904;2024-02-21T00:38:37;100763.34;;;-5.74;65.01
78117;BME280;69042;59.120;37.904;2024-02-21T00:41:04;100762.50;;;-5.73;65.34
78117;BME280;69042;59.120;37.904;2024-02-21T00:43:30;100771.13;;;-5.69;65.38
78117;BME280;69042;59.120;37.904;2024-02-21T00:45:56;100766.13;;;-5.66;64.92
78117;BME280;69042;59.120;37.904;2024-02-21T00:48:23;100766.22;;;-5.63;65.25
78117;BME280;69042;59.120;37.904;2024-02-21T00:50:49;100762.19;;;-5.58;65.57
78117;BME280;69042;59.120;37.904;2024-02-21T00:53:16;100766.59;;;-5.52;64.90
78117;BME280;69042;59.120;37.904;2024-02-21T00:55:42;100765.97;;;-5.45;65.15
78117;BME280;69042;59.120;37.904;2024-02-21T00:58:09;100760.94;;;-5.44;65.21
78117;BME280;69042;59.120;37.904;2024-02-21T01:00:36;100761.16;;;-5.37;65.50
78117;BME280;69042;59.120;37.904;2024-02-21T01:03:02;100756.97;;;-5.35;64.72
78117;BME280;69042;59.120;37.904;2024-02-21T01:05:29;100752.75;;;-5.35;65.36
78117;BME280;69042;59.120;37.904;2024-02-21T01:07:55;100756.16;;;-5.34;64.91
78117;BME280;69042;59.120;37.904;2024-02-21T01:10:22;100751.00;;;-5.36;64.87
78117;BME280;69042;59.120;37.904;2024-02-21T01:12:48;100757.00;;;-5.34;64.55
78117;BME280;69042;59.120;37.904;2024-02-21T01:15:15;100751.88;;;-5.35;64.78
78117;BME280;69042;59.120;37.904;2024-02-21T01:17:41;100752.69;;;-5.36;64.77
78117;BME280;69042;59.120;37.904;2024-02-21T01:20:08;100754.44;;;-5.35;64.42
78117;BME280;69042;59.120;37.904;2024-02-21T01:22:36;100752.69;;;-5.36;64.96
78117;BME280;69042;59.120;37.904;2024-02-21T01:25:03;100744.09;;;-5.40;64.87
78117;BME280;69042;59.120;37.904;2024-02-21T01:27:29;100752.66;;;-5.38;64.62
78117;BME280;69042;59.120;37.904;2024-02-21T01:29:56;100747.50;;;-5.39;65.08
78117;BME280;69042;59.120;37.904;2024-02-21T01:32:22;100755.16;;;-5.39;64.54
78117;BME280;69042;59.120;37.904;2024-02-21T01:34:51;100744.97;;;-5.39;64.59
78117;BME280;69042;59.120;37.904;2024-02-21T01:37:17;100749.28;;;-5.37;64.59
78117;BME280;69042;59.120;37.904;2024-02-21T01:39:44;100751.91;;;-5.34;65.31
78117;BME280;69042;59.120;37.904;2024-02-21T01:42:10;100755.38;;;-5.32;64.43
78117;BME280;69042;59.120;37.904;2024-02-21T01:44:36;100751.19;;;-5.31;64.54
78117;BME280;69042;59.120;37.904;2024-02-21T01:47:04;100748.63;;;-5.31;64.94
78117;BME280;69042;59.120;37.904;2024-02-21T01:49:30;100767.31;;;-5.31;64.35
78117;BME280;69042;59.120;37.904;2024-02-21T01:51:58;100757.84;;;-5.35;65.14
78117;BME280;69042;59.120;37.904;2024-02-21T01:54:25;100759.53;;;-5.35;64.34
78117;BME280;69042;59.120;37.904;2024-02-21T01:56:54;100762.00;;;-5.37;64.43
78117;BME280;69042;59.120;37.904;2024-02-21T01:59:21;100755.16;;;-5.39;64.21
78117;BME280;69042;59.120;37.904;2024-02-21T02:01:48;100755.94;;;-5.40;64.65
78117;BME280;69042;59.120;37.904;2024-02-21T02:04:16;100763.56;;;-5.42;64.61
78117;BME280;69042;59.120;37.904;2024-02-21T02:06:42;100763.28;;;-5.50;64.70
78117;BME280;69042;59.120;37.904;2024-02-21T02:09:11;100770.16;;;-5.47;64.12
78117;BME280;69042;59.120;37.904;2024-02-21T02:11:37;100773.53;;;-5.48;64.10
78117;BME280;69042;59.120;37.904;2024-02-21T02:14:04;100772.66;;;-5.49;64.58
78117;BME280;69042;59.120;37.904;2024-02-21T02:16:30;100775.22;;;-5.49;64.96
78117;BME280;69042;59.120;37.904;2024-02-21T02:18:57;100767.59;;;-5.47;64.25
78117;BME280;69042;59.120;37.904;2024-02-21T02:21:28;100766.97;;;-5.41;64.38
78117;BME280;69042;59.120;37.904;2024-02-21T02:23:56;100765.41;;;-5.38;64.71
78117;BME280;69042;59.120;37.904;2024-02-21T02:26:22;100774.09;;;-5.31;64.78
78117;BME280;69042;59.120;37.904;2024-02-21T02:28:49;100769.19;;;-5.25;65.17
78117;BME280;69042;59.120;37.904;2024-02-21T02:31:16;100769.38;;;-5.19;65.09
78117;BME280;69042;59.120;37.904;2024-02-21T02:33:43;100770.47;;;-5.12;65.27
78117;BME280;69042;59.120;37.904;2024-02-21T02:36:10;100768.81;;;-5.10;65.21
78117;BME280;69042;59.120;37.904;2024-02-21T02:38:37;100774.13;;;-5.04;65.28
78117;BME280;69042;59.120;37.904;2024-02-21T02:41:03;100778.53;;;-4.98;64.46
78117;BME280;69042;59.120;37.904;2024-02-21T02:43:30;100772.66;;;-4.96;64.33
78117;BME280;69042;59.120;37.904;2024-02-21T02:45:57;100775.31;;;-4.93;64.41
78117;BME280;69042;59.120;37.904;2024-02-21T02:48:24;100772.81;;;-4.91;64.64
78117;BME280;69042;59.120;37.904;2024-02-21T02:50:50;100768.63;;;-4.89;63.76
78117;BME280;69042;59.120;37.904;2024-02-21T02:53:16;100783.97;;;-4.88;63.56
78117;BME280;69042;59.120;37.904;2024-02-21T02:55:43;100783.97;;;-4.88;63.61
78117;BME280;69042;59.120;37.904;2024-02-21T02:58:09;100781.41;;;-4.88;63.47
78117;BME280;69042;59.120;37.904;2024-02-21T03:00:36;100773.69;;;-4.91;64.01
78117;BME280;69042;59.120;37.904;2024-02-21T03:03:03;100778.81;;;-4.89;63.54
78117;BME280;69042;59.120;37.904;2024-02-21T03:05:30;100779.72;;;-4.87;64.20
78117;BME280;69042;59.120;37.904;2024-02-21T03:07:56;100781.50;;;-4.85;63.77
78117;BME280;69042;59.120;37.904;2024-02-21T03:10:23;100784.97;;;-4.83;63.82
78117;BME280;69042;59.120;37.904;2024-02-21T03:12:49;100779.78;;;-4.86;63.98
78117;BME280;69042;59.120;37.904;2024-02-21T03:15:19;100787.38;;;-4.87;63.52
78117;BME280;69042;59.120;37.904;2024-02-21T03:17:46;100777.97;;;-4.90;64.18
78117;BME280;69042;59.120;37.904;2024-02-21T03:20:12;100786.47;;;-4.89;64.28
78117;BME280;69042;59.120;37.904;2024-02-21T03:22:39;100791.63;;;-4.88;63.97
78117;BME280;69042;59.120;37.904;2024-02-21T03:25:07;100786.53;;;-4.88;64.16
78117;BME280;69042;59.120;37.904;2024-02-21T03:27:34;100786.72;;;-4.82;64.32
78117;BME280;69042;59.120;37.904;2024-02-21T03:30:04;100785.09;;;-4.78;63.87
78117;BME280;69042;59.120;37.904;2024-02-21T03:32:31;100780.00;;;-4.78;63.34
78117;BME280;69042;59.120;37.904;2024-02-21T03:34:58;100779.16;;;-4.78;63.68
78117;BME280;69042;59.120;37.904;2024-02-21T03:37:24;100775.78;;;-4.77;63.67
78117;BME280;69042;59.120;37.904;2024-02-21T03:39:51;100777.56;;;-4.75;64.16
78117;BME280;69042;59.120;37.904;2024-02-21T03:42:18;100774.25;;;-4.72;64.22
78117;BME280;69042;59.120;37.904;2024-02-21T03:44:45;100770.06;;;-4.70;63.27
78117;BME280;69042;59.120;37.904;2024-02-21T03:47:11;100767.47;;;-4.72;63.39
78117;BME280;69042;59.120;37.904;2024-02-21T03:49:38;100762.44;;;-4.69;64.16
78117;BME280;69042;59.120;37.904;2024-02-21T03:52:04;100775.25;;;-4.67;64.15
78117;BME280;69042;59.120;37.904;2024-02-21T03:54:31;100768.38;;;-4.70;63.77
78117;BME280;69042;59.120;37.904;2024-02-21T03:56:57;100771.88;;;-4.66;63.86
78117;BME280;69042;59.120;37.904;2024-02-21T03:59:24;100767.53;;;-4.69;63.25
78117;BME280;69042;59.120;37.904;2024-02-21T04:01:53;100759.88;;;-4.70;63.55
78117;BME280;69042;59.120;37.904;2024-02-21T04:04:20;100755.56;;;-4.71;63.05
78117;BME280;69042;59.120;37.904;2024-02-21T04:06:48;100762.50;;;-4.67;63.26
78117;BME280;69042;59.120;37.904;2024-02-21T04:09:14;100750.59;;;-4.68;63.68
78117;BME280;69042;59.120;37.904;2024-02-21T04:11:43;100766.69;;;-4.69;63.77
78117;BME280;69042;59.120;37.904;2024-02-21T04:14:10;100764.06;;;-4.71;63.54
78117;BME280;69042;59.120;37.904;2024-02-21T04:16:37;100769.19;;;-4.71;63.45
78117;BME280;69042;59.120;37.904;2024-02-21T04:19:05;100763.34;;;-4.68;64.01
78117;BME280;69042;59.120;37.904;2024-02-21T04:21:31;100765.97;;;-4.65;63.39
78117;BME280;69042;59.120;37.904;2024-02-21T04:23:59;100756.69;;;-4.62;63.15
78117;BME280;69042;59.120;37.904;2024-02-21T04:26:26;100760.09;;;-4.63;63.82
78117;BME280;69042;59.120;37.904;2024-02-21T04:28:52;100756.63;;;-4.65;63.84
78117;BME280;69042;59.120;37.904;2024-02-21T04:31:19;100761.81;;;-4.62;63.32
78117;BME280;69042;59.120;37.904;2024-02-21T04:33:45;100768.66;;;-4.61;64.09
78117;BME280;69042;59.120;37.904;2024-02-21T04:36:12;100768.78;;;-4.56;63.85
78117;BME280;69042;59.120;37.904;2024-02-21T04:38:39;100761.19;;;-4.54;63.64
78117;BME280;69042;59.120;37.904;2024-02-21T04:41:06;100757.84;;;-4.52;63.12
78117;BME280;69042;59.120;37.904;2024-02-21T04:43:34;100760.44;;;-4.50;63.33
78117;BME280;69042;59.120;37.904;2024-02-21T04:46:00;100757.00;;;-4.52;63.16
78117;BME280;69042;59.120;37.904;2024-02-21T04:48:27;100752.91;;;-4.47;63.44
78117;BME280;69042;59.120;37.904;2024-02-21T04:50:54;100754.53;;;-4.49;63.59
78117;BME280;69042;59.120;37.904;2024-02-21T04:53:20;100744.38;;;-4.48;63.55
78117;BME280;69042;59.120;37.904;2024-02-21T04:55:47;100752.94;;;-4.46;62.87
78117;BME280;69042;59.120;37.904;2024-02-21T04:58:14;100753.75;;;-4.47;63.24
78117;BME280;69042;59.120;37.904;2024-02-21T05:00:40;100753.66;;;-4.50;62.93
78117;BME280;69042;59.120;37.904;2024-02-21T05:03:07;100757.84;;;-4.52;62.80
78117;BME280;69042;59.120;37.904;2024-02-21T05:05:33;100760.34;;;-4.53;63.38
78117;BME280;69042;59.120;37.904;2024-02-21T05:08:00;100761.19;;;-4.54;62.99
78117;BME280;69042;59.120;37.904;2024-02-21T05:10:26;100755.06;;;-4.60;62.93
78117;BME280;69042;59.120;37.904;2024-02-21T05:12:53;100756.69;;;-4.62;62.63
78117;BME280;69042;59.120;37.904;2024-02-21T05:15:19;100760.16;;;-4.60;63.82
78117;BME280;69042;59.120;37.904;2024-02-21T05:17:46;100761.06;;;-4.57;62.86
78117;BME280;69042;59.120;37.904;2024-02-21T05:20:13;100754.34;;;-4.55;62.84
78117;BME280;69042;59.120;37.904;2024-02-21T05:22:39;100762.91;;;-4.53;63.07
78117;BME280;69042;59.120;37.904;2024-02-21T05:25:06;100757.94;;;-4.49;63.06
78117;BME280;69042;59.120;37.904;2024-02-21T05:27:33;100755.44;;;-4.47;62.99
78117;BME280;69042;59.120;37.904;2024-02-21T05:30:01;100758.06;;;-4.44;63.43
78117;BME280;69042;59.120;37.904;2024-02-21T05:32:27;100750.41;;;-4.44;62.80
78117;BME280;69042;59.120;37.904;2024-02-21T05:34:54;100751.38;;;-4.41;63.09
78117;BME280;69042;59.120;37.904;2024-02-21T05:37:21;100763.53;;;-4.32;63.80
78117;BME280;69042;59.120;37.904;2024-02-21T05:39:47;100748.19;;;-4.33;62.66
78117;BME280;69042;59.120;37.904;2024-02-21T05:45:30;100755.41;;;-4.19;63.23
78117;BME280;69042;59.120;37.904;2024-02-21T05:47:57;100752.22;;;-4.11;63.37
78117;BME280;69042;59.120;37.904;2024-02-21T05:50:23;100750.56;;;-4.09;62.76
78117;BME280;69042;59.120;37.904;2024-02-21T05:52:56;100753.25;;;-4.05;63.30
78117;BME280;69042;59.120;37.904;2024-02-21T05:55:22;100757.63;;;-3.99;62.89
78117;BME280;69042;59.120;37.904;2024-02-21T05:57:49;100754.34;;;-3.95;63.65
78117;BME280;69042;59.120;37.904;2024-02-21T06:00:16;100750.28;;;-3.88;63.51
